Yamato — JD2252 — position and weather

sailwx.info

Track history (hours):
 
Tides and Currents Weather Stations Pressure Air Temp Water Temp Dewpoint Dewpoint Depression Visibility Wind Speed Wind Dir Waves Ship Positions

Yamato

Last reported at 2014-Nov-01 08:04 UTC. Time now 2014-Nov-01 10:33 UTC.
Position N 35°27' E 139°40'.

Length 40 m; draft 3.6 m.

Type: Tug. MMSI: 431101141.

Date/timePositionNaut miles runAvg speedWind from/ knotsBaromVisibWave heightAir tempDewpointWater temp
2014-Nov-01 08:04N 35°27' E 139°40'4 7.3
2014-Nov-01 07:33N 35°29' E 139°43'1 1.2
2014-Nov-01 06:33N 35°29' E 139°42'2 1.6
2014-Nov-01 05:33N 35°28' E 139°41'0 0.0
2014-Nov-01 04:33N 35°28' E 139°41'0 0.0
2014-Nov-01 03:33N 35°28' E 139°41'0 0.0
2014-Nov-01 02:33N 35°28' E 139°41'0 0.0
2014-Nov-01 01:33N 35°28' E 139°41'0 0.0
2014-Nov-01 00:33N 35°28' E 139°41'0 0.0
2014-Oct-31 23:33N 35°28' E 139°41'1 1.0
2014-Oct-31 22:34N 35°27' E 139°41'1 1.5
2014-Oct-31 21:33N 35°27' E 139°40'0 0.1
2014-Oct-31 20:33N 35°27' E 139°40'0 0.0
2014-Oct-31 09:05N 35°27' E 139°40'1 2.7
2014-Oct-31 08:33N 35°27' E 139°41'1 0.6
2014-Oct-31 07:33N 35°26' E 139°41'0 0.5
2014-Oct-31 06:33N 35°27' E 139°40'1 0.8
2014-Oct-31 05:33N 35°27' E 139°40'0 0.0
2014-Oct-31 04:33N 35°27' E 139°40'0 0.0
2014-Oct-31 03:33N 35°27' E 139°40'0 0.0
2014-Oct-31 02:33N 35°27' E 139°40'0 0.0
2014-Oct-31 01:33N 35°27' E 139°40'1 1.3
2014-Oct-31 00:33N 35°27' E 139°41'1 0.6
2014-Oct-30 22:15N 35°27' E 139°40'0 0.0
2014-Oct-30 21:34N 35°27' E 139°40'0 0.0
2014-Oct-30 03:33N 35°27' E 139°40'1 1.4
2014-Oct-30 02:33N 35°26' E 139°41'1 1.3
2014-Oct-30 01:33N 35°27' E 139°40'0 0.0
2014-Oct-30 00:33N 35°27' E 139°40'0 0.1
2014-Oct-29 23:34N 35°27' E 139°40'2 1.9
2014-Oct-29 22:34N 35°28' E 139°41'2 1.7
2014-Oct-29 21:33N 35°27' E 139°42'0 0.0
2014-Oct-29 20:33N 35°27' E 139°42'0 0.0
2014-Oct-29 19:33N 35°27' E 139°42'3 3.2
2014-Oct-29 18:33N 35°24' E 139°41'1 1.3
2014-Oct-29 17:33N 35°24' E 139°40'0 0.0
2014-Oct-29 16:33N 35°24' E 139°40'0 0.0
2014-Oct-29 15:33N 35°24' E 139°40'0 0.0
2014-Oct-29 14:33N 35°24' E 139°40'0 0.0
2014-Oct-29 13:33N 35°24' E 139°40'3 3.5
2014-Oct-29 12:33N 35°27' E 139°41'2 2.4
2014-Oct-29 11:33N 35°26' E 139°43'2 1.8
2014-Oct-29 10:33N 35°28' E 139°44'2 1.7
2014-Oct-29 09:33N 35°27' E 139°43'3 2.6
2014-Oct-29 08:33N 35°27' E 139°39'1 1.3
2014-Oct-29 07:34N 35°27' E 139°41'1 1.1
2014-Oct-29 06:33N 35°28' E 139°40'0 0.0
2014-Oct-29 05:33N 35°28' E 139°40'0 0.0
2014-Oct-29 04:33N 35°28' E 139°40'0 0.0
2014-Oct-29 03:33N 35°28' E 139°40'0 0.0
2014-Oct-29 02:33N 35°28' E 139°40'0 0.0
2014-Oct-29 01:33N 35°28' E 139°40'0 0.0
2014-Oct-29 00:33N 35°28' E 139°40'0 0.4
2014-Oct-28 23:34N 35°28' E 139°40'3 3.3
2014-Oct-28 22:33N 35°27' E 139°44'4 3.7
2014-Oct-28 21:33N 35°27' E 139°40'0 0.1
2014-Oct-28 20:33N 35°27' E 139°40'0 0.0
2014-Oct-28 19:33N 35°27' E 139°40'0 0.0
2014-Oct-28 18:33N 35°27' E 139°40'0 0.0
2014-Oct-28 17:33N 35°27' E 139°40'0 0.0
2014-Oct-28 16:33N 35°27' E 139°40'0 0.0
2014-Oct-28 15:33N 35°27' E 139°40'0 0.0
2014-Oct-28 14:33N 35°27' E 139°40'0 0.0
2014-Oct-28 13:33N 35°27' E 139°40'0 0.0
2014-Oct-28 12:33N 35°27' E 139°40'0 0.0
2014-Oct-28 11:33N 35°27' E 139°40'0 0.0
2014-Oct-28 10:33N 35°27' E 139°40'0 0.5
2014-Oct-28 09:33N 35°27' E 139°39'2 1.8
2014-Oct-28 08:33N 35°27' E 139°41'1 0.8
2014-Oct-28 07:33N 35°27' E 139°42'1 1.3
2014-Oct-28 06:33N 35°27' E 139°41'3 3.2
2014-Oct-28 05:33N 35°29' E 139°43'0 0.0
2014-Oct-28 04:33N 35°29' E 139°43'0 0.0
2014-Oct-28 03:33N 35°29' E 139°43'4 4.1
2014-Oct-28 02:33N 35°26' E 139°41'2 1.6
2014-Oct-28 01:34N 35°27' E 139°41'1 1.0
2014-Oct-28 00:33N 35°27' E 139°40'0 0.0
2014-Oct-27 23:33N 35°27' E 139°40'2 2.3
2014-Oct-27 22:33N 35°28' E 139°42'2 1.6
2014-Oct-27 21:33N 35°27' E 139°40'1 0.8
2014-Oct-27 20:33N 35°27' E 139°40'0 0.0
2014-Oct-27 19:33N 35°27' E 139°40'1 0.1
2014-Oct-27 09:33N 35°27' E 139°40'1 0.7
2014-Oct-27 08:33N 35°27' E 139°41'1 1.0
2014-Oct-27 07:34N 35°26' E 139°41'1 1.3
2014-Oct-27 06:33N 35°28' E 139°41'0 0.4
2014-Oct-27 05:34N 35°27' E 139°40'5 4.6
2014-Oct-27 04:33N 35°23' E 139°39'4 4.3
2014-Oct-27 03:33N 35°27' E 139°40'0 0.0
2014-Oct-27 02:34N 35°27' E 139°40'0 0.0
2014-Oct-27 01:33N 35°27' E 139°40'0 0.0
2014-Oct-27 00:34N 35°27' E 139°40'0 0.0
2014-Oct-26 23:33N 35°27' E 139°40'1 0.8
2014-Oct-26 22:34N 35°27' E 139°40'1 0.7
2014-Oct-26 21:33N 35°27' E 139°40'0 0.1
2014-Oct-26 20:33N 35°27' E 139°40'0 0.0
2014-Oct-26 02:24N 35°27' E 139°40'1 1.4
2014-Oct-26 01:34N 35°26' E 139°41'1 1.3
2014-Oct-26 00:33N 35°27' E 139°39'0 0.0
2014-Oct-25 23:13N 35°27' E 139°40'3 4.0
2014-Oct-25 22:33N 35°27' E 139°43'5 5.3
2014-Oct-25 21:33N 35°32' E 139°46'3 3.0
2014-Oct-25 20:33N 35°29' E 139°45'5 4.5
2014-Oct-25 19:33N 35°26' E 139°41'1 1.2
2014-Oct-25 18:33N 35°27' E 139°42'0 0.0
2014-Oct-25 17:33N 35°27' E 139°42'0 0.0
2014-Oct-25 16:33N 35°27' E 139°42'0 0.0
2014-Oct-25 15:33N 35°27' E 139°42'0 0.0
2014-Oct-25 14:33N 35°27' E 139°42'1 0.6
2014-Oct-25 13:33N 35°26' E 139°42'1 0.5
2014-Oct-25 12:33N 35°27' E 139°42'0 0.0
2014-Oct-25 11:33N 35°27' E 139°42'2 1.6
2014-Oct-25 10:33N 35°26' E 139°40'2 1.5
2014-Oct-25 09:33N 35°27' E 139°42'1 0.8
2014-Oct-25 08:33N 35°28' E 139°42'2 1.8
2014-Oct-25 07:33N 35°27' E 139°40'0 0.0
2014-Oct-25 06:33N 35°27' E 139°40'0 0.0
2014-Oct-25 05:33N 35°27' E 139°40'0 0.0
2014-Oct-25 04:33N 35°27' E 139°40'0 0.0
2014-Oct-25 03:33N 35°27' E 139°40'0 0.0
2014-Oct-25 02:33N 35°27' E 139°40'0 0.0
2014-Oct-25 01:33N 35°27' E 139°40'0 0.0
2014-Oct-25 00:33N 35°27' E 139°40'0 0.0
2014-Oct-24 23:33N 35°27' E 139°40'0 0.0
2014-Oct-24 22:33N 35°27' E 139°40'0 0.0
2014-Oct-24 07:11N 35°27' E 139°40'0 0.4
2014-Oct-24 06:33N 35°27' E 139°40'1 1.0
2014-Oct-24 05:33N 35°27' E 139°41'1 1.3
2014-Oct-24 04:33N 35°27' E 139°39'0 0.0
2014-Oct-24 03:33N 35°27' E 139°39'0 0.0
2014-Oct-24 02:33N 35°27' E 139°39'0 0.0
2014-Oct-24 01:33N 35°27' E 139°39'0 0.0
2014-Oct-24 00:33N 35°27' E 139°39'0 0.0
2014-Oct-23 23:33N 35°27' E 139°39'4 4.1
2014-Oct-23 22:33N 35°30' E 139°43'2 1.5
2014-Oct-23 21:33N 35°29' E 139°42'2 1.6
2014-Oct-23 20:33N 35°27' E 139°42'2 2.2
2014-Oct-23 19:33N 35°27' E 139°40'0 0.0
2014-Oct-23 18:33N 35°27' E 139°40'0 0.0
2014-Oct-23 17:33N 35°27' E 139°40'0 0.0
2014-Oct-23 16:33N 35°27' E 139°40'0 0.0
2014-Oct-23 15:33N 35°27' E 139°40'0 0.0
2014-Oct-23 14:33N 35°27' E 139°40'0 0.0
2014-Oct-23 13:33N 35°27' E 139°40'0 0.0
2014-Oct-23 12:33N 35°27' E 139°40'0 0.0
2014-Oct-23 11:34N 35°27' E 139°40'0 0.0
2014-Oct-23 10:34N 35°27' E 139°40'0 0.0
2014-Oct-23 09:33N 35°27' E 139°40'0 0.0
2014-Oct-23 08:33N 35°27' E 139°40'0 0.0
2014-Oct-23 07:33N 35°27' E 139°40'1 1.0
2014-Oct-23 06:33N 35°28' E 139°41'0 0.0
2014-Oct-23 05:33N 35°28' E 139°41'0 0.0
2014-Oct-23 04:33N 35°28' E 139°41'0 0.0
2014-Oct-23 03:33N 35°28' E 139°41'0 0.0
2014-Oct-23 02:33N 35°28' E 139°41'0 0.0
2014-Oct-23 01:33N 35°28' E 139°41'5 4.5
2014-Oct-23 00:33N 35°30' E 139°45'1 0.8
2014-Oct-22 23:33N 35°30' E 139°44'3 2.7
2014-Oct-22 22:33N 35°28' E 139°46'4 3.7
2014-Oct-22 21:33N 35°32' E 139°46'7 6.8
2014-Oct-22 20:33N 35°27' E 139°40'0 0.0
2014-Oct-22 09:34N 35°27' E 139°40'2 1.5
2014-Oct-22 08:34N 35°28' E 139°39'  
Track history (hours):
 
Tides and Currents Weather Stations Pressure Air Temp Water Temp Dewpoint Dewpoint Depression Visibility Wind Speed Wind Dir Waves Ship Positions

Yamato

Last reported at 2014-Nov-01 08:04 UTC. Time now 2014-Nov-01 10:33 UTC.
Position N 35°27' E 139°40'.

Length 40 m; draft 3.6 m.

Type: Tug. MMSI: 431101141.

Date/timePositionNaut miles runAvg speedWind from/ knotsBaromVisibWave heightAir tempDewpointWater temp
2014-Nov-01 08:04N 35°27' E 139°40'4 7.3
2014-Nov-01 07:33N 35°29' E 139°43'1 1.2
2014-Nov-01 06:33N 35°29' E 139°42'2 1.6
2014-Nov-01 05:33N 35°28' E 139°41'0 0.0
2014-Nov-01 04:33N 35°28' E 139°41'0 0.0
2014-Nov-01 03:33N 35°28' E 139°41'0 0.0
2014-Nov-01 02:33N 35°28' E 139°41'0 0.0
2014-Nov-01 01:33N 35°28' E 139°41'0 0.0
2014-Nov-01 00:33N 35°28' E 139°41'0 0.0
2014-Oct-31 23:33N 35°28' E 139°41'1 1.0
2014-Oct-31 22:34N 35°27' E 139°41'1 1.5
2014-Oct-31 21:33N 35°27' E 139°40'0 0.1
2014-Oct-31 20:33N 35°27' E 139°40'0 0.0
2014-Oct-31 09:05N 35°27' E 139°40'1 2.7
2014-Oct-31 08:33N 35°27' E 139°41'1 0.6
2014-Oct-31 07:33N 35°26' E 139°41'0 0.5
2014-Oct-31 06:33N 35°27' E 139°40'1 0.8
2014-Oct-31 05:33N 35°27' E 139°40'0 0.0
2014-Oct-31 04:33N 35°27' E 139°40'0 0.0
2014-Oct-31 03:33N 35°27' E 139°40'0 0.0
2014-Oct-31 02:33N 35°27' E 139°40'0 0.0
2014-Oct-31 01:33N 35°27' E 139°40'1 1.3
2014-Oct-31 00:33N 35°27' E 139°41'1 0.6
2014-Oct-30 22:15N 35°27' E 139°40'0 0.0
2014-Oct-30 21:34N 35°27' E 139°40'0 0.0
2014-Oct-30 03:33N 35°27' E 139°40'1 1.4
2014-Oct-30 02:33N 35°26' E 139°41'1 1.3
2014-Oct-30 01:33N 35°27' E 139°40'0 0.0
2014-Oct-30 00:33N 35°27' E 139°40'0 0.1
2014-Oct-29 23:34N 35°27' E 139°40'2 1.9
2014-Oct-29 22:34N 35°28' E 139°41'2 1.7
2014-Oct-29 21:33N 35°27' E 139°42'0 0.0
2014-Oct-29 20:33N 35°27' E 139°42'0 0.0
2014-Oct-29 19:33N 35°27' E 139°42'3 3.2
2014-Oct-29 18:33N 35°24' E 139°41'1 1.3
2014-Oct-29 17:33N 35°24' E 139°40'0 0.0
2014-Oct-29 16:33N 35°24' E 139°40'0 0.0
2014-Oct-29 15:33N 35°24' E 139°40'0 0.0
2014-Oct-29 14:33N 35°24' E 139°40'0 0.0
2014-Oct-29 13:33N 35°24' E 139°40'3 3.5
2014-Oct-29 12:33N 35°27' E 139°41'2 2.4
2014-Oct-29 11:33N 35°26' E 139°43'2 1.8
2014-Oct-29 10:33N 35°28' E 139°44'2 1.7
2014-Oct-29 09:33N 35°27' E 139°43'3 2.6
2014-Oct-29 08:33N 35°27' E 139°39'1 1.3
2014-Oct-29 07:34N 35°27' E 139°41'1 1.1
2014-Oct-29 06:33N 35°28' E 139°40'0 0.0
2014-Oct-29 05:33N 35°28' E 139°40'0 0.0
2014-Oct-29 04:33N 35°28' E 139°40'0 0.0
2014-Oct-29 03:33N 35°28' E 139°40'0 0.0
2014-Oct-29 02:33N 35°28' E 139°40'0 0.0
2014-Oct-29 01:33N 35°28' E 139°40'0 0.0
2014-Oct-29 00:33N 35°28' E 139°40'0 0.4
2014-Oct-28 23:34N 35°28' E 139°40'3 3.3
2014-Oct-28 22:33N 35°27' E 139°44'4 3.7
2014-Oct-28 21:33N 35°27' E 139°40'0 0.1
2014-Oct-28 20:33N 35°27' E 139°40'0 0.0
2014-Oct-28 19:33N 35°27' E 139°40'0 0.0
2014-Oct-28 18:33N 35°27' E 139°40'0 0.0
2014-Oct-28 17:33N 35°27' E 139°40'0 0.0
2014-Oct-28 16:33N 35°27' E 139°40'0 0.0
2014-Oct-28 15:33N 35°27' E 139°40'0 0.0
2014-Oct-28 14:33N 35°27' E 139°40'0 0.0
2014-Oct-28 13:33N 35°27' E 139°40'0 0.0
2014-Oct-28 12:33N 35°27' E 139°40'0 0.0
2014-Oct-28 11:33N 35°27' E 139°40'0 0.0
2014-Oct-28 10:33N 35°27' E 139°40'0 0.5
2014-Oct-28 09:33N 35°27' E 139°39'2 1.8
2014-Oct-28 08:33N 35°27' E 139°41'1 0.8
2014-Oct-28 07:33N 35°27' E 139°42'1 1.3
2014-Oct-28 06:33N 35°27' E 139°41'3 3.2
2014-Oct-28 05:33N 35°29' E 139°43'0 0.0
2014-Oct-28 04:33N 35°29' E 139°43'0 0.0
2014-Oct-28 03:33N 35°29' E 139°43'4 4.1
2014-Oct-28 02:33N 35°26' E 139°41'2 1.6
2014-Oct-28 01:34N 35°27' E 139°41'1 1.0
2014-Oct-28 00:33N 35°27' E 139°40'0 0.0
2014-Oct-27 23:33N 35°27' E 139°40'2 2.3
2014-Oct-27 22:33N 35°28' E 139°42'2 1.6
2014-Oct-27 21:33N 35°27' E 139°40'1 0.8
2014-Oct-27 20:33N 35°27' E 139°40'0 0.0
2014-Oct-27 19:33N 35°27' E 139°40'1 0.1
2014-Oct-27 09:33N 35°27' E 139°40'1 0.7
2014-Oct-27 08:33N 35°27' E 139°41'1 1.0
2014-Oct-27 07:34N 35°26' E 139°41'1 1.3
2014-Oct-27 06:33N 35°28' E 139°41'0 0.4
2014-Oct-27 05:34N 35°27' E 139°40'5 4.6
2014-Oct-27 04:33N 35°23' E 139°39'4 4.3
2014-Oct-27 03:33N 35°27' E 139°40'0 0.0
2014-Oct-27 02:34N 35°27' E 139°40'0 0.0
2014-Oct-27 01:33N 35°27' E 139°40'0 0.0
2014-Oct-27 00:34N 35°27' E 139°40'0 0.0
2014-Oct-26 23:33N 35°27' E 139°40'1 0.8
2014-Oct-26 22:34N 35°27' E 139°40'1 0.7
2014-Oct-26 21:33N 35°27' E 139°40'0 0.1
2014-Oct-26 20:33N 35°27' E 139°40'0 0.0
2014-Oct-26 02:24N 35°27' E 139°40'1 1.4
2014-Oct-26 01:34N 35°26' E 139°41'1 1.3
2014-Oct-26 00:33N 35°27' E 139°39'0 0.0
2014-Oct-25 23:13N 35°27' E 139°40'3 4.0
2014-Oct-25 22:33N 35°27' E 139°43'5 5.3
2014-Oct-25 21:33N 35°32' E 139°46'3 3.0
2014-Oct-25 20:33N 35°29' E 139°45'5 4.5
2014-Oct-25 19:33N 35°26' E 139°41'1 1.2
2014-Oct-25 18:33N 35°27' E 139°42'0 0.0
2014-Oct-25 17:33N 35°27' E 139°42'0 0.0
2014-Oct-25 16:33N 35°27' E 139°42'0 0.0
2014-Oct-25 15:33N 35°27' E 139°42'0 0.0
2014-Oct-25 14:33N 35°27' E 139°42'1 0.6
2014-Oct-25 13:33N 35°26' E 139°42'1 0.5
2014-Oct-25 12:33N 35°27' E 139°42'0 0.0
2014-Oct-25 11:33N 35°27' E 139°42'2 1.6
2014-Oct-25 10:33N 35°26' E 139°40'2 1.5
2014-Oct-25 09:33N 35°27' E 139°42'1 0.8
2014-Oct-25 08:33N 35°28' E 139°42'2 1.8
2014-Oct-25 07:33N 35°27' E 139°40'0 0.0
2014-Oct-25 06:33N 35°27' E 139°40'0 0.0
2014-Oct-25 05:33N 35°27' E 139°40'0 0.0
2014-Oct-25 04:33N 35°27' E 139°40'0 0.0
2014-Oct-25 03:33N 35°27' E 139°40'0 0.0
2014-Oct-25 02:33N 35°27' E 139°40'0 0.0
2014-Oct-25 01:33N 35°27' E 139°40'0 0.0
2014-Oct-25 00:33N 35°27' E 139°40'0 0.0
2014-Oct-24 23:33N 35°27' E 139°40'0 0.0
2014-Oct-24 22:33N 35°27' E 139°40'0 0.0
2014-Oct-24 07:11N 35°27' E 139°40'0 0.4
2014-Oct-24 06:33N 35°27' E 139°40'1 1.0
2014-Oct-24 05:33N 35°27' E 139°41'1 1.3
2014-Oct-24 04:33N 35°27' E 139°39'0 0.0
2014-Oct-24 03:33N 35°27' E 139°39'0 0.0
2014-Oct-24 02:33N 35°27' E 139°39'0 0.0
2014-Oct-24 01:33N 35°27' E 139°39'0 0.0
2014-Oct-24 00:33N 35°27' E 139°39'0 0.0
2014-Oct-23 23:33N 35°27' E 139°39'4 4.1
2014-Oct-23 22:33N 35°30' E 139°43'2 1.5
2014-Oct-23 21:33N 35°29' E 139°42'2 1.6
2014-Oct-23 20:33N 35°27' E 139°42'2 2.2
2014-Oct-23 19:33N 35°27' E 139°40'0 0.0
2014-Oct-23 18:33N 35°27' E 139°40'0 0.0
2014-Oct-23 17:33N 35°27' E 139°40'0 0.0
2014-Oct-23 16:33N 35°27' E 139°40'0 0.0
2014-Oct-23 15:33N 35°27' E 139°40'0 0.0
2014-Oct-23 14:33N 35°27' E 139°40'0 0.0
2014-Oct-23 13:33N 35°27' E 139°40'0 0.0
2014-Oct-23 12:33N 35°27' E 139°40'0 0.0
2014-Oct-23 11:34N 35°27' E 139°40'0 0.0
2014-Oct-23 10:34N 35°27' E 139°40'0 0.0
2014-Oct-23 09:33N 35°27' E 139°40'0 0.0
2014-Oct-23 08:33N 35°27' E 139°40'0 0.0
2014-Oct-23 07:33N 35°27' E 139°40'1 1.0
2014-Oct-23 06:33N 35°28' E 139°41'0 0.0
2014-Oct-23 05:33N 35°28' E 139°41'0 0.0
2014-Oct-23 04:33N 35°28' E 139°41'0 0.0
2014-Oct-23 03:33N 35°28' E 139°41'0 0.0
2014-Oct-23 02:33N 35°28' E 139°41'0 0.0
2014-Oct-23 01:33N 35°28' E 139°41'5 4.5
2014-Oct-23 00:33N 35°30' E 139°45'1 0.8
2014-Oct-22 23:33N 35°30' E 139°44'3 2.7
2014-Oct-22 22:33N 35°28' E 139°46'4 3.7
2014-Oct-22 21:33N 35°32' E 139°46'7 6.8
2014-Oct-22 20:33N 35°27' E 139°40'0 0.0
2014-Oct-22 09:34N 35°27' E 139°40'2 1.5
2014-Oct-22 08:34N 35°28' E 139°39'  

Dump ship's entire track history